createdAt,value
2019-03-17T00:01:57.213Z,993.59
2019-03-17T00:07:46.697Z,993.50
2019-03-17T00:13:46.627Z,993.50
2019-03-17T00:19:46.734Z,993.40
2019-03-17T00:25:46.666Z,993.26
2019-03-17T00:31:46.670Z,993.22
2019-03-17T00:37:46.839Z,993.20
2019-03-17T00:43:46.639Z,993.16
2019-03-17T00:49:46.720Z,993.18
2019-03-17T00:55:46.661Z,993.11
2019-03-17T01:01:46.678Z,993.13
2019-03-17T01:07:46.685Z,993.02
2019-03-17T01:13:46.818Z,992.85
2019-03-17T01:19:46.722Z,992.77
2019-03-17T01:25:46.843Z,992.88
2019-03-17T01:31:46.797Z,992.72
2019-03-17T01:37:46.959Z,992.73
2019-03-17T01:43:46.706Z,992.53
2019-03-17T01:49:46.738Z,992.46
2019-03-17T01:55:46.775Z,992.43
2019-03-17T02:01:46.818Z,992.46
2019-03-17T02:07:46.737Z,992.36
2019-03-17T02:13:46.728Z,992.28
2019-03-17T02:19:46.743Z,992.25
2019-03-17T02:25:46.775Z,992.21
2019-03-17T02:31:46.739Z,992.23
2019-03-17T02:37:46.758Z,992.14
2019-03-17T02:43:46.766Z,992.13
2019-03-17T02:49:47.057Z,991.99
2019-03-17T02:55:46.757Z,991.91
2019-03-17T03:01:46.767Z,991.89
2019-03-17T03:07:46.875Z,991.88
2019-03-17T03:13:46.819Z,991.77
2019-03-17T03:19:46.780Z,991.72
2019-03-17T03:25:46.731Z,991.81
2019-03-17T03:31:46.790Z,991.71
2019-03-17T03:37:46.784Z,991.75
2019-03-17T03:43:46.801Z,991.51
2019-03-17T03:49:46.890Z,991.54
2019-03-17T03:55:46.790Z,991.30
2019-03-17T04:01:46.774Z,991.31
2019-03-17T04:07:46.898Z,991.39
2019-03-17T04:13:47.869Z,991.38
2019-03-17T04:19:46.818Z,991.39
2019-03-17T04:25:46.799Z,991.36
2019-03-17T04:31:46.874Z,991.35
2019-03-17T04:37:46.912Z,991.37
2019-03-17T04:43:46.963Z,991.39
2019-03-17T04:49:46.842Z,991.32
2019-03-17T04:55:46.839Z,991.22
2019-03-17T05:01:46.975Z,991.24
2019-03-17T05:07:46.806Z,991.15
2019-03-17T05:13:46.875Z,991.15
2019-03-17T05:19:46.855Z,991.09
2019-03-17T05:25:47.037Z,991.09
2019-03-17T05:31:46.864Z,991.07
2019-03-17T05:37:46.918Z,991.15
2019-03-17T05:43:46.878Z,991.31
2019-03-17T05:49:46.876Z,991.32
2019-03-17T05:55:47.054Z,991.30
2019-03-17T06:01:46.850Z,991.33
2019-03-17T06:07:46.886Z,991.39
2019-03-17T06:13:46.875Z,991.35
2019-03-17T06:19:46.897Z,991.42
2019-03-17T06:25:46.905Z,991.44
2019-03-17T06:31:46.919Z,991.53
2019-03-17T06:37:46.903Z,991.53
2019-03-17T06:43:46.892Z,991.51
2019-03-17T06:49:46.900Z,991.56
2019-03-17T06:55:47.102Z,991.56
2019-03-17T07:01:47.087Z,991.64
2019-03-17T07:07:46.909Z,991.61
2019-03-17T07:13:46.951Z,991.66
2019-03-17T07:19:46.932Z,991.84
2019-03-17T07:25:46.937Z,991.79
2019-03-17T07:31:46.919Z,991.78
2019-03-17T07:37:56.338Z,991.88
2019-03-17T07:43:46.944Z,991.82
2019-03-17T07:49:47.176Z,991.75
2019-03-17T07:55:46.956Z,991.86
2019-03-17T08:01:46.929Z,991.74
2019-03-17T08:07:46.946Z,991.69
2019-03-17T08:13:46.967Z,991.61
2019-03-17T08:19:47.032Z,991.55
2019-03-17T08:25:47.085Z,991.57
2019-03-17T08:31:46.943Z,991.66
2019-03-17T08:37:47.242Z,991.58
2019-03-17T08:43:54.155Z,991.65
2019-03-17T08:49:47.020Z,991.62
2019-03-17T08:55:46.990Z,991.63
2019-03-17T09:01:47.743Z,991.61
2019-03-17T09:07:47.049Z,991.77
2019-03-17T09:13:47.075Z,991.78
2019-03-17T09:19:46.977Z,991.81
2019-03-17T09:25:47.024Z,991.81
2019-03-17T09:31:47.124Z,991.78
2019-03-17T09:37:47.065Z,991.79
2019-03-17T09:43:47.213Z,991.81
2019-03-17T09:49:47.050Z,991.79
2019-03-17T09:55:47.089Z,991.73
2019-03-17T10:01:47.139Z,991.73
2019-03-17T10:07:47.075Z,991.65
2019-03-17T10:13:47.059Z,991.62
2019-03-17T10:19:47.174Z,991.49
2019-03-17T10:25:47.070Z,991.48
2019-03-17T10:31:47.241Z,991.63
2019-03-17T10:37:47.091Z,991.53
2019-03-17T10:43:47.127Z,991.46
2019-03-17T10:49:47.190Z,991.64
2019-03-17T10:55:47.112Z,991.41
2019-03-17T11:01:47.082Z,991.48
2019-03-17T11:07:47.110Z,991.60
2019-03-17T11:13:47.141Z,991.52
2019-03-17T11:19:47.296Z,991.54
2019-03-17T11:25:47.117Z,991.62
2019-03-17T11:31:47.097Z,991.69
2019-03-17T11:37:47.111Z,991.64
2019-03-17T11:43:47.140Z,991.72
2019-03-17T11:49:47.289Z,992.06
2019-03-17T11:55:47.126Z,992.08
2019-03-17T12:01:47.136Z,992.22
2019-03-17T12:07:47.204Z,992.37
2019-03-17T12:13:47.255Z,992.58
2019-03-17T12:19:47.137Z,992.77
2019-03-17T12:25:47.157Z,992.99
2019-03-17T12:31:47.150Z,993.49
2019-03-17T12:37:47.237Z,993.40
2019-03-17T12:43:47.259Z,993.57
2019-03-17T12:49:47.200Z,993.87
2019-03-17T12:55:47.242Z,994.16
2019-03-17T13:01:47.179Z,994.49
2019-03-17T13:07:47.194Z,994.62
2019-03-17T13:13:47.268Z,994.80
2019-03-17T13:19:47.211Z,995.03
2019-03-17T13:25:47.243Z,995.01
2019-03-17T13:31:47.181Z,994.96
2019-03-17T13:37:47.162Z,995.05
2019-03-17T13:43:47.276Z,995.19
2019-03-17T13:49:47.321Z,995.31
2019-03-17T13:55:47.204Z,995.65
2019-03-17T14:01:47.227Z,995.57
2019-03-17T14:07:47.231Z,995.41
2019-03-17T14:13:47.224Z,995.38
2019-03-17T14:19:47.424Z,995.54
2019-03-17T14:25:47.357Z,995.68
2019-03-17T14:31:47.310Z,995.75
2019-03-17T14:37:47.349Z,995.85
2019-03-17T14:43:47.290Z,995.94
2019-03-17T14:49:47.249Z,995.98
2019-03-17T14:55:47.233Z,996.14
2019-03-17T15:01:47.270Z,996.05
2019-03-17T15:07:47.267Z,996.14
2019-03-17T15:13:47.294Z,996.17
2019-03-17T15:19:47.293Z,995.95
2019-03-17T15:25:47.279Z,996.03
2019-03-17T15:31:47.287Z,996.10
2019-03-17T15:37:47.279Z,996.07
2019-03-17T15:43:47.309Z,996.22
2019-03-17T15:49:47.317Z,996.36
2019-03-17T15:55:47.282Z,996.68
2019-03-17T16:01:47.325Z,996.82
2019-03-17T16:07:47.287Z,996.90
2019-03-17T16:13:47.413Z,996.84
2019-03-17T16:19:47.793Z,996.90
2019-03-17T16:25:50.371Z,996.98
2019-03-17T16:31:47.331Z,996.89
2019-03-17T16:37:47.328Z,997.03
2019-03-17T16:43:47.343Z,997.07
2019-03-17T16:49:47.346Z,997.06
2019-03-17T16:55:47.372Z,996.88
2019-03-17T17:01:47.369Z,997.11
2019-03-17T17:07:47.373Z,997.36
2019-03-17T17:13:47.447Z,997.71
2019-03-17T17:19:47.374Z,997.74
2019-03-17T17:25:47.384Z,998.12
2019-03-17T17:31:47.360Z,998.36
2019-03-17T17:37:47.462Z,998.18
2019-03-17T17:43:48.452Z,998.17
2019-03-17T17:49:47.828Z,998.29
2019-03-17T17:55:47.384Z,998.35
2019-03-17T18:01:47.562Z,998.25
2019-03-17T18:07:47.377Z,998.29
2019-03-17T18:13:47.438Z,998.34
2019-03-17T18:19:47.576Z,998.13
2019-03-17T18:25:47.629Z,998.61
2019-03-17T18:31:47.474Z,998.50
2019-03-17T18:37:47.453Z,998.63
2019-03-17T18:43:47.759Z,998.79
2019-03-17T18:49:47.449Z,999.02
2019-03-17T18:55:47.446Z,999.32
2019-03-17T19:01:47.430Z,999.44
2019-03-17T19:07:47.479Z,999.44
2019-03-17T19:13:47.664Z,999.54
2019-03-17T19:19:47.516Z,999.66
2019-03-17T19:25:47.465Z,999.89
2019-03-17T19:31:47.590Z,999.82
2019-03-17T19:37:47.636Z,999.96
2019-03-17T19:43:47.734Z,1000.04
2019-03-17T19:49:47.594Z,1000.13
2019-03-17T19:55:47.476Z,1000.25
2019-03-17T20:01:47.475Z,1000.33
2019-03-17T20:07:47.519Z,1000.57
2019-03-17T20:13:47.663Z,1000.75
2019-03-17T20:19:47.925Z,1000.89
2019-03-17T20:25:47.521Z,1001.13
2019-03-17T20:31:47.520Z,1001.16
2019-03-17T20:37:47.512Z,1001.43
2019-03-17T20:43:47.614Z,1001.52
2019-03-17T20:49:47.537Z,1001.75
2019-03-17T20:55:47.515Z,1001.73
2019-03-17T21:01:47.808Z,1001.71
2019-03-17T21:07:47.668Z,1001.81
2019-03-17T21:13:47.590Z,1001.93
2019-03-17T21:19:47.758Z,1002.03
2019-03-17T21:25:47.718Z,1002.02
2019-03-17T21:31:47.575Z,1002.06
2019-03-17T21:37:47.580Z,1002.06
2019-03-17T21:43:58.968Z,1002.09
2019-03-17T21:49:47.614Z,1002.09
2019-03-17T21:55:47.780Z,1002.13
2019-03-17T22:01:47.610Z,1002.07
2019-03-17T22:07:50.577Z,1002.08
2019-03-17T22:13:47.577Z,1002.16
2019-03-17T22:19:47.676Z,1002.24
2019-03-17T22:25:47.759Z,1002.38
2019-03-17T22:31:47.825Z,1002.48
2019-03-17T22:37:47.659Z,1002.51
2019-03-17T22:43:47.590Z,1002.52
2019-03-17T22:49:47.782Z,1002.57
2019-03-17T22:55:47.626Z,1002.54
2019-03-17T23:01:47.639Z,1002.52
2019-03-17T23:07:47.657Z,1002.61
2019-03-17T23:13:47.717Z,1002.59
2019-03-17T23:19:47.641Z,1002.63
2019-03-17T23:25:47.612Z,1002.78
2019-03-17T23:31:47.844Z,1002.92
2019-03-17T23:37:47.682Z,1002.80
2019-03-17T23:43:48.059Z,1002.85
2019-03-17T23:49:47.688Z,1002.92
2019-03-17T23:55:47.824Z,1002.81
